createdAt,value
2019-03-23T00:01:01.909Z,18.80
2019-03-23T00:03:32.862Z,19.95
2019-03-23T00:06:03.919Z,18.45
2019-03-23T00:08:34.931Z,17.80
2019-03-23T00:11:05.865Z,18.60
2019-03-23T00:13:36.774Z,17.35
2019-03-23T00:16:07.774Z,19.77
2019-03-23T00:18:38.753Z,21.17
2019-03-23T00:21:09.854Z,15.68
2019-03-23T00:23:40.965Z,16.00
2019-03-23T00:26:13.319Z,19.07
2019-03-23T00:28:44.609Z,16.95
2019-03-23T00:31:15.567Z,18.60
2019-03-23T00:33:46.543Z,24.50
2019-03-23T00:36:17.568Z,19.92
2019-03-23T00:38:48.516Z,18.12
2019-03-23T00:41:19.504Z,14.60
2019-03-23T00:43:50.488Z,20.70
2019-03-23T00:46:21.379Z,17.85
2019-03-23T00:48:52.371Z,18.27
2019-03-23T00:51:23.465Z,18.55
2019-03-23T00:53:54.493Z,19.25
2019-03-23T00:56:26.474Z,25.45
2019-03-23T00:58:57.574Z,23.25
2019-03-23T01:01:28.518Z,17.00
2019-03-23T01:03:59.549Z,19.45
2019-03-23T01:06:30.478Z,18.48
2019-03-23T01:09:01.433Z,19.55
2019-03-23T01:11:32.362Z,18.55
2019-03-23T01:14:03.302Z,18.85
2019-03-23T01:16:34.311Z,21.85
2019-03-23T01:19:05.250Z,17.87
2019-03-23T01:21:36.253Z,15.83
2019-03-23T01:24:07.261Z,17.35
2019-03-23T01:26:38.292Z,18.92
2019-03-23T01:29:09.267Z,18.02
2019-03-23T01:31:40.227Z,19.85
2019-03-23T01:34:11.326Z,17.23
2019-03-23T01:36:42.321Z,18.65
2019-03-23T01:39:13.295Z,19.65
2019-03-23T01:41:44.314Z,20.95
2019-03-23T01:44:15.393Z,19.87
2019-03-23T01:46:46.370Z,20.50
2019-03-23T01:49:17.365Z,20.37
2019-03-23T01:51:48.818Z,20.30
2019-03-23T01:54:19.781Z,18.37
2019-03-23T01:56:50.787Z,17.80
2019-03-23T01:59:21.737Z,20.27
2019-03-23T02:01:52.731Z,21.12
2019-03-23T02:04:23.725Z,21.65
2019-03-23T02:06:54.730Z,21.68
2019-03-23T02:09:25.737Z,23.75
2019-03-23T02:11:56.715Z,19.55
2019-03-23T02:14:27.701Z,18.45
2019-03-23T02:16:58.754Z,22.55
2019-03-23T02:19:29.670Z,21.30
2019-03-23T02:22:00.993Z,21.82
2019-03-23T02:24:31.993Z,20.82
2019-03-23T02:27:03.135Z,23.77
2019-03-23T02:29:34.071Z,20.35
2019-03-23T02:32:05.021Z,20.97
2019-03-23T02:34:35.941Z,19.80
2019-03-23T02:37:07.018Z,24.10
2019-03-23T02:39:37.972Z,16.40
2019-03-23T02:42:09.087Z,18.25
2019-03-23T02:44:39.998Z,19.85
2019-03-23T02:47:11.153Z,20.05
2019-03-23T02:49:42.162Z,22.40
2019-03-23T02:52:13.308Z,18.90
2019-03-23T02:54:44.280Z,18.20
2019-03-23T02:57:15.300Z,18.75
2019-03-23T02:59:46.255Z,16.07
2019-03-23T03:02:17.258Z,21.15
2019-03-23T03:04:48.154Z,20.32
2019-03-23T03:07:19.081Z,18.15
2019-03-23T03:09:50.070Z,20.85
2019-03-23T03:12:21.075Z,21.97
2019-03-23T03:14:52.150Z,20.45
2019-03-23T03:17:23.166Z,18.85
2019-03-23T03:19:54.067Z,18.70
2019-03-23T03:22:25.023Z,20.68
2019-03-23T03:24:56.137Z,20.00
2019-03-23T03:27:27.209Z,19.48
2019-03-23T03:29:58.255Z,20.45
2019-03-23T03:32:29.252Z,16.35
2019-03-23T03:35:00.654Z,20.92
2019-03-23T03:37:31.689Z,20.12
2019-03-23T03:40:02.699Z,19.20
2019-03-23T03:42:33.713Z,18.05
2019-03-23T03:45:04.783Z,16.55
2019-03-23T03:47:35.694Z,20.27
2019-03-23T03:50:07.142Z,20.17
2019-03-23T03:52:38.070Z,24.63
2019-03-23T03:55:09.158Z,23.00
2019-03-23T03:57:40.074Z,19.02
2019-03-23T04:00:11.243Z,19.25
2019-03-23T04:02:42.138Z,18.77
2019-03-23T04:05:13.189Z,19.92
2019-03-23T04:07:44.163Z,22.75
2019-03-23T04:10:15.138Z,18.65
2019-03-23T04:12:46.186Z,18.70
2019-03-23T04:15:17.178Z,19.92
2019-03-23T04:17:48.109Z,19.45
2019-03-23T04:20:19.047Z,18.20
2019-03-23T04:22:49.995Z,17.75
2019-03-23T04:25:21.050Z,18.00
2019-03-23T04:27:52.075Z,16.42
2019-03-23T04:30:23.781Z,20.88
2019-03-23T04:32:54.812Z,18.07
2019-03-23T04:35:25.834Z,19.30
2019-03-23T04:37:57.181Z,20.25
2019-03-23T04:40:28.238Z,17.85
2019-03-23T04:42:59.266Z,15.95
2019-03-23T04:45:30.292Z,16.70
2019-03-23T04:48:01.834Z,21.45
2019-03-23T04:50:32.792Z,17.35
2019-03-23T04:53:03.766Z,24.00
2019-03-23T04:55:34.864Z,21.00
2019-03-23T04:58:05.829Z,22.15
2019-03-23T05:00:36.843Z,21.20
2019-03-23T05:03:07.814Z,19.07
2019-03-23T05:05:38.817Z,18.80
2019-03-23T05:08:09.965Z,17.75
2019-03-23T05:10:40.985Z,22.95
2019-03-23T05:13:11.947Z,19.73
2019-03-23T05:15:43.024Z,15.15
2019-03-23T05:18:14.093Z,20.00
2019-03-23T05:20:45.054Z,20.57
2019-03-23T05:23:19.452Z,23.47
2019-03-23T05:25:50.467Z,18.67
2019-03-23T05:28:24.602Z,18.45
2019-03-23T05:30:55.611Z,25.40
2019-03-23T05:33:29.763Z,21.27
2019-03-23T05:36:04.052Z,19.90
2019-03-23T05:38:43.863Z,18.55
2019-03-23T05:41:09.601Z,19.87
2019-03-23T05:43:43.947Z,17.48
2019-03-23T05:46:25.750Z,19.40
2019-03-23T05:49:03.670Z,17.73
2019-03-23T05:51:40.668Z,17.98
2019-03-23T05:54:13.653Z,23.47
2019-03-23T05:56:44.647Z,19.35
2019-03-23T05:59:15.990Z,15.20
2019-03-23T06:01:47.898Z,29.30
2019-03-23T06:04:23.534Z,68.62
2019-03-23T06:06:54.555Z,29.27
2019-03-23T06:09:36.712Z,19.73
2019-03-23T06:12:13.833Z,19.80
2019-03-23T06:14:45.882Z,20.60
2019-03-23T06:17:19.705Z,15.68
2019-03-23T06:20:04.705Z,17.67
2019-03-23T06:22:35.966Z,21.65
2019-03-23T06:25:07.391Z,23.10
2019-03-23T06:27:40.506Z,19.07
2019-03-23T06:30:18.553Z,17.98
2019-03-23T06:32:50.483Z,19.07
2019-03-23T06:35:27.673Z,16.17
2019-03-23T06:38:04.846Z,16.95
2019-03-23T06:40:35.859Z,16.10
2019-03-23T06:43:30.471Z,17.00
2019-03-23T06:46:06.594Z,18.80
2019-03-23T06:48:37.533Z,16.48
2019-03-23T06:51:08.561Z,15.70
2019-03-23T06:53:39.549Z,17.27
2019-03-23T06:56:10.562Z,16.07
2019-03-23T06:58:41.529Z,16.35
2019-03-23T07:01:12.520Z,18.45
2019-03-23T07:03:43.442Z,14.50
2019-03-23T07:06:14.385Z,21.90
2019-03-23T07:08:45.349Z,19.00
2019-03-23T07:11:16.302Z,16.93
2019-03-23T07:13:47.293Z,18.42
2019-03-23T07:16:18.259Z,15.98
2019-03-23T07:18:50.271Z,16.48
2019-03-23T07:21:22.310Z,19.07
2019-03-23T07:23:53.235Z,18.62
2019-03-23T07:26:24.206Z,17.35
2019-03-23T07:28:55.162Z,17.40
2019-03-23T07:31:26.163Z,18.40
2019-03-23T07:33:58.214Z,16.67
2019-03-23T07:36:29.170Z,17.98
2019-03-23T07:39:00.089Z,15.53
2019-03-23T07:41:31.149Z,18.02
2019-03-23T07:44:11.183Z,18.90
2019-03-23T07:46:47.776Z,17.75
2019-03-23T07:49:18.701Z,17.17
2019-03-23T07:51:49.685Z,15.23
2019-03-23T07:54:20.739Z,18.17
2019-03-23T07:56:56.699Z,18.53
2019-03-23T07:59:27.681Z,16.27
2019-03-23T08:02:00.605Z,17.93
2019-03-23T08:04:33.567Z,16.93
2019-03-23T08:07:04.619Z,17.17
2019-03-23T08:09:38.602Z,18.17
2019-03-23T08:12:11.614Z,17.80
2019-03-23T08:14:42.640Z,17.63
2019-03-23T08:17:16.788Z,18.07
2019-03-23T08:19:47.778Z,19.70
2019-03-23T08:22:18.740Z,22.23
2019-03-23T08:24:49.699Z,19.30
2019-03-23T08:27:20.683Z,18.23
2019-03-23T08:29:52.700Z,23.43
2019-03-23T08:32:23.672Z,18.00
2019-03-23T08:34:57.992Z,19.70
2019-03-23T08:37:28.405Z,18.20
2019-03-23T08:39:59.448Z,19.93
2019-03-23T08:42:35.005Z,26.60
2019-03-23T08:45:07.256Z,19.20
2019-03-23T08:47:38.278Z,23.73
2019-03-23T08:50:09.418Z,22.07
2019-03-23T08:52:41.385Z,23.70
2019-03-23T08:55:13.655Z,23.20
2019-03-23T08:57:48.563Z,26.30
2019-03-23T09:00:19.515Z,23.40
2019-03-23T09:02:51.503Z,25.10
2019-03-23T09:05:22.536Z,26.30
2019-03-23T09:07:53.447Z,26.47
2019-03-23T09:10:24.522Z,27.63
2019-03-23T09:12:56.678Z,29.30
2019-03-23T09:15:27.730Z,26.53
2019-03-23T09:17:58.685Z,28.60
2019-03-23T09:20:29.784Z,28.83
2019-03-23T09:23:00.680Z,25.77
2019-03-23T09:25:31.632Z,24.20
2019-03-23T09:28:02.648Z,26.10
2019-03-23T09:30:33.662Z,24.57
2019-03-23T09:33:04.741Z,30.33
2019-03-23T09:35:39.383Z,26.67
2019-03-23T09:38:11.426Z,30.77
2019-03-23T09:40:42.369Z,25.30
2019-03-23T09:43:13.412Z,26.00
2019-03-23T09:45:44.331Z,23.70
2019-03-23T09:48:15.426Z,24.17
2019-03-23T09:50:48.378Z,28.33
2019-03-23T09:53:19.345Z,25.70
2019-03-23T09:55:50.254Z,21.87
2019-03-23T09:58:21.296Z,29.17
2019-03-23T10:00:52.274Z,23.60
2019-03-23T10:03:23.233Z,27.10
2019-03-23T10:05:55.257Z,24.43
2019-03-23T10:08:26.285Z,27.43
2019-03-23T10:10:58.254Z,25.73
2019-03-23T10:13:29.330Z,24.60
2019-03-23T10:16:00.326Z,23.30
2019-03-23T10:18:31.285Z,28.20
2019-03-23T10:21:02.236Z,23.27
2019-03-23T10:23:33.258Z,25.63
2019-03-23T10:26:04.154Z,23.37
2019-03-23T10:28:35.100Z,26.10
2019-03-23T10:31:06.022Z,23.50
2019-03-23T10:33:39.084Z,22.50
2019-03-23T10:36:12.207Z,24.20
2019-03-23T10:38:42.642Z,24.60
2019-03-23T10:41:13.541Z,22.77
2019-03-23T10:43:44.610Z,25.77
2019-03-23T10:46:15.620Z,28.70
2019-03-23T10:48:46.651Z,23.60
2019-03-23T10:51:17.592Z,28.10
2019-03-23T10:53:48.559Z,26.03
2019-03-23T10:56:19.614Z,24.13
2019-03-23T10:58:50.552Z,23.33
2019-03-23T11:01:21.606Z,25.60
2019-03-23T11:03:54.614Z,23.63
2019-03-23T11:06:25.576Z,24.50
2019-03-23T11:08:58.595Z,23.07
2019-03-23T11:11:29.618Z,33.07
2019-03-23T11:14:00.562Z,25.80
2019-03-23T11:16:31.600Z,23.93
2019-03-23T11:19:02.535Z,28.73
2019-03-23T11:21:34.159Z,24.30
2019-03-23T11:24:06.168Z,29.50
2019-03-23T11:26:37.160Z,24.47
2019-03-23T11:29:08.510Z,26.23
2019-03-23T11:31:39.618Z,26.13
2019-03-23T11:34:17.718Z,24.60
2019-03-23T11:36:43.302Z,26.07
2019-03-23T11:39:14.296Z,29.37
2019-03-23T11:41:45.325Z,25.17
2019-03-23T11:44:17.291Z,23.57
2019-03-23T11:46:48.340Z,26.63
2019-03-23T11:49:19.392Z,26.43
2019-03-23T11:51:50.421Z,27.40
2019-03-23T11:54:21.518Z,28.87
2019-03-23T11:56:52.495Z,25.03
2019-03-23T11:59:23.415Z,25.87
2019-03-23T12:01:54.372Z,25.07
2019-03-23T12:04:25.395Z,25.90
2019-03-23T12:06:56.428Z,29.30
2019-03-23T12:09:27.368Z,26.53
2019-03-23T12:11:58.398Z,26.47
2019-03-23T12:14:30.386Z,24.60
2019-03-23T12:17:01.377Z,24.43
2019-03-23T12:19:32.361Z,25.70
2019-03-23T12:22:03.315Z,23.80
2019-03-23T12:24:34.340Z,28.30
2019-03-23T12:27:05.326Z,24.80
2019-03-23T12:29:37.348Z,26.80
2019-03-23T12:32:08.387Z,24.90
2019-03-23T12:34:39.362Z,30.63
2019-03-23T12:37:10.310Z,24.73
2019-03-23T12:39:41.362Z,26.17
2019-03-23T12:42:12.398Z,28.00
2019-03-23T12:44:43.403Z,25.47
2019-03-23T12:47:14.373Z,31.10
2019-03-23T12:49:45.322Z,28.53
2019-03-23T12:52:16.329Z,33.00
2019-03-23T12:54:47.345Z,27.43
2019-03-23T12:57:18.293Z,28.00
2019-03-23T12:59:49.311Z,26.10
2019-03-23T13:02:20.303Z,27.07
2019-03-23T13:04:51.318Z,27.17
2019-03-23T13:07:22.283Z,24.10
2019-03-23T13:09:53.274Z,30.20
2019-03-23T13:12:24.254Z,26.67
2019-03-23T13:14:55.249Z,27.43
2019-03-23T13:17:26.196Z,31.87
2019-03-23T13:19:57.282Z,28.93
2019-03-23T13:22:31.240Z,29.00
2019-03-23T13:25:02.201Z,30.53
2019-03-23T13:27:33.210Z,27.80
2019-03-23T13:30:04.519Z,28.73
2019-03-23T13:32:35.484Z,29.10
2019-03-23T13:35:07.545Z,28.77
2019-03-23T13:37:38.579Z,27.07
2019-03-23T13:40:10.439Z,28.43
2019-03-23T13:42:41.453Z,28.23
2019-03-23T13:45:12.665Z,28.40
2019-03-23T13:47:43.671Z,27.50
2019-03-23T13:50:17.258Z,24.93
2019-03-23T13:52:48.234Z,29.20
2019-03-23T13:55:27.709Z,28.57
2019-03-23T13:58:10.229Z,30.67
2019-03-23T14:00:41.654Z,31.97
2019-03-23T14:03:12.796Z,27.10
2019-03-23T14:05:43.758Z,31.60
2019-03-23T14:08:14.737Z,32.93
2019-03-23T14:10:45.704Z,24.40
2019-03-23T14:13:16.808Z,27.27
2019-03-23T14:15:47.955Z,30.40
2019-03-23T14:18:18.973Z,28.57
2019-03-23T14:20:50.038Z,26.87
2019-03-23T14:23:39.780Z,26.60
2019-03-23T14:26:10.776Z,30.73
2019-03-23T14:28:41.740Z,30.03
2019-03-23T14:31:12.837Z,29.53
2019-03-23T14:33:43.893Z,29.33
2019-03-23T14:36:14.903Z,27.63
2019-03-23T14:38:45.877Z,30.10
2019-03-23T14:41:16.856Z,28.00
2019-03-23T14:43:47.878Z,25.93
2019-03-23T14:46:18.844Z,28.47
2019-03-23T14:48:50.422Z,28.67
2019-03-23T14:51:21.437Z,29.53
2019-03-23T14:53:52.439Z,29.03
2019-03-23T14:56:23.391Z,26.67
2019-03-23T14:58:54.534Z,26.70
2019-03-23T15:01:25.518Z,26.00
2019-03-23T15:03:56.554Z,26.07
2019-03-23T15:06:27.690Z,27.17
2019-03-23T15:08:58.789Z,28.00
2019-03-23T15:11:29.812Z,30.50
2019-03-23T15:14:00.798Z,27.50
2019-03-23T15:16:31.894Z,27.70
2019-03-23T15:19:02.957Z,26.03
2019-03-23T15:21:33.923Z,24.17
2019-03-23T15:24:05.054Z,28.00
2019-03-23T15:26:38.865Z,29.83
2019-03-23T15:29:09.948Z,28.90
2019-03-23T15:31:41.010Z,26.70
2019-03-23T15:34:11.943Z,24.50
2019-03-23T15:36:42.921Z,29.27
2019-03-23T15:39:13.929Z,25.67
2019-03-23T15:41:44.880Z,30.47
2019-03-23T15:44:15.914Z,29.40
2019-03-23T15:46:46.915Z,28.97
2019-03-23T15:49:17.954Z,26.00
2019-03-23T15:51:49.065Z,28.70
2019-03-23T15:54:20.098Z,31.00
2019-03-23T15:56:51.037Z,29.93
2019-03-23T15:59:22.072Z,30.07
2019-03-23T16:01:53.017Z,27.73
2019-03-23T16:04:23.975Z,29.13
2019-03-23T16:06:56.810Z,29.33
2019-03-23T16:09:27.658Z,28.73
2019-03-23T16:11:58.761Z,32.37
2019-03-23T16:14:29.675Z,28.23
2019-03-23T16:17:00.698Z,36.30
2019-03-23T16:19:31.734Z,29.60
2019-03-23T16:22:02.834Z,29.23
2019-03-23T16:24:33.838Z,32.63
2019-03-23T16:27:04.917Z,29.00
2019-03-23T16:29:35.914Z,33.57
2019-03-23T16:32:06.969Z,29.60
2019-03-23T16:34:37.877Z,25.47
2019-03-23T16:37:09.096Z,30.57
2019-03-23T16:39:40.120Z,30.47
2019-03-23T16:42:11.181Z,30.13
2019-03-23T16:44:42.242Z,33.20
2019-03-23T16:47:13.241Z,34.30
2019-03-23T16:49:44.289Z,29.67
2019-03-23T16:52:15.365Z,31.00
2019-03-23T16:54:46.301Z,31.87
2019-03-23T16:57:17.265Z,33.07
2019-03-23T16:59:48.229Z,29.63
2019-03-23T17:02:19.272Z,34.10
2019-03-23T17:04:50.306Z,31.00
2019-03-23T17:07:21.337Z,30.03
2019-03-23T17:09:52.274Z,32.40
2019-03-23T17:12:23.262Z,30.20
2019-03-23T17:14:54.267Z,30.73
2019-03-23T17:17:25.246Z,29.30
2019-03-23T17:19:56.219Z,34.60
2019-03-23T17:22:27.179Z,35.30
2019-03-23T17:24:58.235Z,32.63
2019-03-23T17:27:36.620Z,32.17
2019-03-23T17:30:14.579Z,34.10
2019-03-23T17:32:47.537Z,35.13
2019-03-23T17:35:18.588Z,32.30
2019-03-23T17:37:54.878Z,30.37
2019-03-23T17:40:25.886Z,32.13
2019-03-23T17:43:05.571Z,32.87
2019-03-23T17:45:29.649Z,34.60
2019-03-23T17:48:00.675Z,32.43
2019-03-23T17:50:31.725Z,33.47
2019-03-23T17:53:02.758Z,31.93
2019-03-23T17:55:33.832Z,32.27
2019-03-23T17:58:07.860Z,35.13
2019-03-23T18:00:44.895Z,30.13
2019-03-23T18:03:19.423Z,37.53
2019-03-23T18:05:50.474Z,31.40
2019-03-23T18:08:21.396Z,33.03
2019-03-23T18:10:55.391Z,32.60
2019-03-23T18:13:26.294Z,29.07
2019-03-23T18:15:58.326Z,25.13
2019-03-23T18:18:29.396Z,33.90
2019-03-23T18:21:01.435Z,35.33
2019-03-23T18:23:32.475Z,34.20
2019-03-23T18:26:03.520Z,34.63
2019-03-23T18:28:34.606Z,30.83
2019-03-23T18:31:07.592Z,37.80
2019-03-23T18:33:49.807Z,33.13
2019-03-23T18:36:21.839Z,29.97
2019-03-23T18:38:57.287Z,31.70
2019-03-23T18:41:29.364Z,29.63
2019-03-23T18:44:00.373Z,33.47
2019-03-23T18:46:36.670Z,31.10
2019-03-23T18:49:28.036Z,35.97
2019-03-23T18:51:59.034Z,30.40
2019-03-23T18:54:30.120Z,39.70
2019-03-23T18:57:05.386Z,38.40
2019-03-23T18:59:36.410Z,39.43
2019-03-23T19:02:13.241Z,38.50
2019-03-23T19:04:44.296Z,44.77
2019-03-23T19:07:16.400Z,37.40
2019-03-23T19:09:49.729Z,40.60
2019-03-23T19:12:20.869Z,37.03
2019-03-23T19:14:51.901Z,34.20
2019-03-23T19:17:25.486Z,37.77
2019-03-23T19:19:56.555Z,38.63
2019-03-23T19:22:27.526Z,36.17
2019-03-23T19:25:00.596Z,36.60
2019-03-23T19:27:42.894Z,42.87
2019-03-23T19:30:14.348Z,35.87
2019-03-23T19:32:46.403Z,40.23
2019-03-23T19:35:19.421Z,46.53
2019-03-23T19:37:50.390Z,43.30
2019-03-23T19:40:21.393Z,57.17
2019-03-23T19:42:55.828Z,56.30
2019-03-23T19:45:27.806Z,46.20
2019-03-23T19:47:58.812Z,53.17
2019-03-23T19:50:29.870Z,51.60
2019-03-23T19:53:00.793Z,57.47
2019-03-23T19:55:31.832Z,57.83
2019-03-23T19:58:07.697Z,64.33
2019-03-23T20:00:38.741Z,68.17
2019-03-23T20:03:09.814Z,74.63
2019-03-23T20:05:40.866Z,64.67
2019-03-23T20:08:15.589Z,68.87
2019-03-23T20:10:46.718Z,61.20
2019-03-23T20:13:17.674Z,62.00
2019-03-23T20:15:48.681Z,66.43
2019-03-23T20:18:19.758Z,62.97
2019-03-23T20:20:50.766Z,54.40
2019-03-23T20:23:21.832Z,52.60
2019-03-23T20:25:52.838Z,48.37
2019-03-23T20:28:29.058Z,47.27
2019-03-23T20:31:00.038Z,43.53
2019-03-23T20:33:30.990Z,38.87
2019-03-23T20:36:02.042Z,42.70
2019-03-23T20:38:33.017Z,223.00
2019-03-23T20:41:10.880Z,264.53
2019-03-23T20:43:41.935Z,41.10
2019-03-23T20:46:13.256Z,43.63
2019-03-23T20:48:44.773Z,40.67
2019-03-23T20:51:15.886Z,39.10
2019-03-23T20:53:47.020Z,38.27
2019-03-23T20:56:17.989Z,40.90
2019-03-23T20:58:48.953Z,35.65
2019-03-23T21:01:19.934Z,41.33
2019-03-23T21:03:50.885Z,37.75
2019-03-23T21:06:21.935Z,38.50
2019-03-23T21:08:57.720Z,40.35
2019-03-23T21:11:28.774Z,36.33
2019-03-23T21:13:59.777Z,41.45
2019-03-23T21:16:30.846Z,37.70
2019-03-23T21:19:02.910Z,33.18
2019-03-23T21:21:33.997Z,35.52
2019-03-23T21:24:05.069Z,37.93
2019-03-23T21:26:36.051Z,41.42
2019-03-23T21:29:11.527Z,39.23
2019-03-23T21:31:42.525Z,37.40
2019-03-23T21:34:17.004Z,39.00
2019-03-23T21:36:48.079Z,37.93
2019-03-23T21:39:25.255Z,39.88
2019-03-23T21:41:56.295Z,41.13
2019-03-23T21:44:31.205Z,32.80
2019-03-23T21:47:02.537Z,42.80
2019-03-23T21:49:37.752Z,36.05
2019-03-23T21:52:08.886Z,37.00
2019-03-23T21:54:40.851Z,40.48
2019-03-23T21:57:19.946Z,36.10
2019-03-23T21:59:59.957Z,41.80
2019-03-23T22:02:30.999Z,42.70
2019-03-23T22:05:02.208Z,40.95
2019-03-23T22:07:33.316Z,39.92
2019-03-23T22:10:04.501Z,42.48
2019-03-23T22:12:38.563Z,44.80
2019-03-23T22:15:10.846Z,42.33
2019-03-23T22:17:41.809Z,52.70
2019-03-23T22:20:12.785Z,42.08
2019-03-23T22:22:52.935Z,42.10
2019-03-23T22:25:27.563Z,49.53
2019-03-23T22:27:58.767Z,45.45
2019-03-23T22:30:30.251Z,47.08
2019-03-23T22:33:01.171Z,43.83
2019-03-23T22:35:33.207Z,47.48
2019-03-23T22:38:10.602Z,47.45
2019-03-23T22:40:45.103Z,51.68
2019-03-23T22:43:16.134Z,50.25
2019-03-23T22:45:50.891Z,41.83
2019-03-23T22:48:29.964Z,54.55
2019-03-23T22:51:04.488Z,45.43
2019-03-23T22:53:35.549Z,41.45
2019-03-23T22:56:12.253Z,49.15
2019-03-23T22:58:52.142Z,50.92
2019-03-23T23:01:23.146Z,55.48
2019-03-23T23:03:56.202Z,49.73
2019-03-23T23:06:27.309Z,48.38
2019-03-23T23:09:00.330Z,56.60
2019-03-23T23:11:34.655Z,54.98
2019-03-23T23:14:11.522Z,58.05
2019-03-23T23:17:04.777Z,59.70
2019-03-23T23:19:41.697Z,64.30
2019-03-23T23:22:12.742Z,60.67
2019-03-23T23:24:48.777Z,62.83
2019-03-23T23:27:23.070Z,62.30
2019-03-23T23:29:54.102Z,55.50
2019-03-23T23:32:25.142Z,65.08
2019-03-23T23:34:56.142Z,64.32
2019-03-23T23:37:27.054Z,59.10
2019-03-23T23:39:58.068Z,62.65
2019-03-23T23:42:29.045Z,58.90
2019-03-23T23:45:00.065Z,63.60
2019-03-23T23:47:31.111Z,62.25
2019-03-23T23:50:02.061Z,59.98
2019-03-23T23:52:33.091Z,58.95
2019-03-23T23:55:04.731Z,61.68
2019-03-23T23:57:35.710Z,64.37
